sensor_id;sensor_type;location;lat;lon;timestamp;pressure;altitude;pressure_sealevel;temperature;humidity
63447;BME280;49577;49.872;6.190;2023-05-16T00:01:53;99474.46;;;11.73;65.87
63447;BME280;49577;49.872;6.190;2023-05-16T00:04:18;99469.24;;;11.68;66.05
63447;BME280;49577;49.872;6.190;2023-05-16T00:06:44;99472.28;;;11.69;66.21
63447;BME280;49577;49.872;6.190;2023-05-16T00:09:09;99472.77;;;11.72;66.32
63447;BME280;49577;49.872;6.190;2023-05-16T00:11:35;99469.65;;;11.74;66.28
63447;BME280;49577;49.872;6.190;2023-05-16T00:14:00;99469.74;;;11.75;66.34
63447;BME280;49577;49.872;6.190;2023-05-16T00:16:25;99469.94;;;11.77;66.44
63447;BME280;49577;49.872;6.190;2023-05-16T00:18:53;99475.39;;;11.75;66.36
63447;BME280;49577;49.872;6.190;2023-05-16T00:21:20;99472.40;;;11.72;66.73
63447;BME280;49577;49.872;6.190;2023-05-16T00:23:46;99476.81;;;11.72;66.78
63447;BME280;49577;49.872;6.190;2023-05-16T00:26:11;99469.30;;;11.69;66.63
63447;BME280;49577;49.872;6.190;2023-05-16T00:28:36;99470.79;;;11.68;66.62
63447;BME280;49577;49.872;6.190;2023-05-16T00:31:02;99476.29;;;11.64;66.81
63447;BME280;49577;49.872;6.190;2023-05-16T00:33:27;99475.19;;;11.55;66.63
63447;BME280;49577;49.872;6.190;2023-05-16T00:35:52;99471.14;;;11.50;66.39
63447;BME280;49577;49.872;6.190;2023-05-16T00:38:18;99468.20;;;11.42;66.27
63447;BME280;49577;49.872;6.190;2023-05-16T00:40:44;99471.76;;;11.36;66.40
63447;BME280;49577;49.872;6.190;2023-05-16T00:43:10;99475.88;;;11.34;66.61
63447;BME280;49577;49.872;6.190;2023-05-16T00:45:36;99476.88;;;11.32;66.48
63447;BME280;49577;49.872;6.190;2023-05-16T00:48:01;99474.30;;;11.29;66.58
63447;BME280;49577;49.872;6.190;2023-05-16T00:50:27;99472.47;;;11.25;66.76
63447;BME280;49577;49.872;6.190;2023-05-16T00:52:52;99473.31;;;11.21;66.85
63447;BME280;49577;49.872;6.190;2023-05-16T00:55:17;99472.45;;;11.15;66.88
63447;BME280;49577;49.872;6.190;2023-05-16T00:57:43;99469.86;;;11.12;67.18
63447;BME280;49577;49.872;6.190;2023-05-16T01:00:09;99470.70;;;11.10;67.51
63447;BME280;49577;49.872;6.190;2023-05-16T01:02:35;99473.27;;;11.13;67.74
63447;BME280;49577;49.872;6.190;2023-05-16T01:05:00;99469.98;;;11.16;67.78
63447;BME280;49577;49.872;6.190;2023-05-16T01:07:26;99472.23;;;11.16;67.74
63447;BME280;49577;49.872;6.190;2023-05-16T01:09:52;99468.80;;;11.15;67.81
63447;BME280;49577;49.872;6.190;2023-05-16T01:17:49;99471.61;;;11.10;68.29
63447;BME280;49577;49.872;6.190;2023-05-16T01:20:36;99473.15;;;11.08;68.42
63447;BME280;49577;49.872;6.190;2023-05-16T01:25:45;99475.71;;;11.06;69.10
63447;BME280;49577;49.872;6.190;2023-05-16T01:28:21;99474.25;;;11.04;69.27
63447;BME280;49577;49.872;6.190;2023-05-16T01:30:46;99472.21;;;11.03;69.69
63447;BME280;49577;49.872;6.190;2023-05-16T01:33:12;99468.39;;;11.00;69.87
63447;BME280;49577;49.872;6.190;2023-05-16T01:39:01;99470.80;;;10.96;70.48
63447;BME280;49577;49.872;6.190;2023-05-16T01:41:40;99471.82;;;10.91;70.74
63447;BME280;49577;49.872;6.190;2023-05-16T01:47:13;99478.96;;;10.80;71.49
63447;BME280;49577;49.872;6.190;2023-05-16T01:49:45;99479.75;;;10.76;71.93
63447;BME280;49577;49.872;6.190;2023-05-16T01:52:19;99481.27;;;10.72;72.13
63447;BME280;49577;49.872;6.190;2023-05-16T01:54:47;99483.91;;;10.66;72.54
63447;BME280;49577;49.872;6.190;2023-05-16T01:57:15;99483.72;;;10.61;72.84
63447;BME280;49577;49.872;6.190;2023-05-16T01:59:41;99485.03;;;10.57;73.14
63447;BME280;49577;49.872;6.190;2023-05-16T02:02:07;99487.42;;;10.53;73.46
63447;BME280;49577;49.872;6.190;2023-05-16T02:04:32;99484.45;;;10.47;73.40
63447;BME280;49577;49.872;6.190;2023-05-16T02:06:57;99486.64;;;10.43;73.74
63447;BME280;49577;49.872;6.190;2023-05-16T02:09:24;99488.23;;;10.40;74.05
63447;BME280;49577;49.872;6.190;2023-05-16T02:11:50;99486.73;;;10.36;74.19
63447;BME280;49577;49.872;6.190;2023-05-16T02:14:15;99485.98;;;10.31;74.60
63447;BME280;49577;49.872;6.190;2023-05-16T02:16:40;99487.22;;;10.28;74.92
63447;BME280;49577;49.872;6.190;2023-05-16T02:19:06;99487.73;;;10.25;75.03
63447;BME280;49577;49.872;6.190;2023-05-16T02:21:31;99488.41;;;10.23;75.22
63447;BME280;49577;49.872;6.190;2023-05-16T02:23:56;99486.71;;;10.19;75.51
63447;BME280;49577;49.872;6.190;2023-05-16T02:26:21;99489.02;;;10.16;75.86
63447;BME280;49577;49.872;6.190;2023-05-16T02:28:47;99486.90;;;10.14;76.10
63447;BME280;49577;49.872;6.190;2023-05-16T02:31:25;99489.35;;;10.13;76.38
63447;BME280;49577;49.872;6.190;2023-05-16T02:33:50;99490.46;;;10.15;76.47
63447;BME280;49577;49.872;6.190;2023-05-16T02:36:15;99492.31;;;10.13;76.67
63447;BME280;49577;49.872;6.190;2023-05-16T02:38:40;99491.90;;;10.12;76.73
63447;BME280;49577;49.872;6.190;2023-05-16T02:41:06;99493.83;;;10.11;77.23
63447;BME280;49577;49.872;6.190;2023-05-16T02:43:31;99491.38;;;10.11;77.21
63447;BME280;49577;49.872;6.190;2023-05-16T02:45:56;99491.89;;;10.12;77.29
63447;BME280;49577;49.872;6.190;2023-05-16T02:48:22;99495.57;;;10.12;77.13
63447;BME280;49577;49.872;6.190;2023-05-16T02:50:47;99497.56;;;10.08;77.15
63447;BME280;49577;49.872;6.190;2023-05-16T02:53:12;99500.17;;;10.08;77.73
63447;BME280;49577;49.872;6.190;2023-05-16T02:55:37;99501.39;;;10.08;77.42
63447;BME280;49577;49.872;6.190;2023-05-16T02:58:03;99503.06;;;10.09;77.48
63447;BME280;49577;49.872;6.190;2023-05-16T03:00:29;99497.70;;;10.11;77.38
63447;BME280;49577;49.872;6.190;2023-05-16T03:02:54;99504.71;;;10.05;76.78
63447;BME280;49577;49.872;6.190;2023-05-16T03:05:19;99508.14;;;10.00;76.81
63447;BME280;49577;49.872;6.190;2023-05-16T03:07:45;99514.08;;;9.95;76.70
63447;BME280;49577;49.872;6.190;2023-05-16T03:10:10;99514.34;;;9.87;76.14
63447;BME280;49577;49.872;6.190;2023-05-16T03:12:36;99517.12;;;9.82;76.41
63447;BME280;49577;49.872;6.190;2023-05-16T03:15:01;99519.15;;;9.83;76.76
63447;BME280;49577;49.872;6.190;2023-05-16T03:17:28;99521.05;;;9.80;76.67
63447;BME280;49577;49.872;6.190;2023-05-16T03:19:53;99517.55;;;9.78;76.89
63447;BME280;49577;49.872;6.190;2023-05-16T03:22:18;99518.63;;;9.80;76.97
63447;BME280;49577;49.872;6.190;2023-05-16T03:24:44;99521.73;;;9.80;77.08
63447;BME280;49577;49.872;6.190;2023-05-16T03:27:09;99523.85;;;9.80;76.95
63447;BME280;49577;49.872;6.190;2023-05-16T03:29:35;99522.60;;;9.78;76.44
63447;BME280;49577;49.872;6.190;2023-05-16T03:32:00;99521.57;;;9.72;76.03
63447;BME280;49577;49.872;6.190;2023-05-16T03:34:26;99523.83;;;9.66;76.48
63447;BME280;49577;49.872;6.190;2023-05-16T03:36:52;99525.27;;;9.62;76.17
63447;BME280;49577;49.872;6.190;2023-05-16T03:39:17;99529.02;;;9.61;75.82
63447;BME280;49577;49.872;6.190;2023-05-16T03:41:43;99533.02;;;9.58;75.73
63447;BME280;49577;49.872;6.190;2023-05-16T03:44:08;99531.59;;;9.56;75.70
63447;BME280;49577;49.872;6.190;2023-05-16T03:46:34;99536.69;;;9.52;75.64
63447;BME280;49577;49.872;6.190;2023-05-16T03:49:00;99539.80;;;9.47;75.30
63447;BME280;49577;49.872;6.190;2023-05-16T03:51:26;99546.87;;;9.46;75.53
63447;BME280;49577;49.872;6.190;2023-05-16T03:53:52;99552.35;;;9.44;75.37
63447;BME280;49577;49.872;6.190;2023-05-16T03:56:17;99555.23;;;9.40;75.23
63447;BME280;49577;49.872;6.190;2023-05-16T03:58:43;99554.70;;;9.33;75.12
63447;BME280;49577;49.872;6.190;2023-05-16T04:01:08;99556.52;;;9.29;75.48
63447;BME280;49577;49.872;6.190;2023-05-16T04:03:33;99558.47;;;9.29;75.52
63447;BME280;49577;49.872;6.190;2023-05-16T04:05:59;99559.29;;;9.27;75.55
63447;BME280;49577;49.872;6.190;2023-05-16T04:08:24;99564.33;;;9.27;76.23
63447;BME280;49577;49.872;6.190;2023-05-16T04:10:50;99567.20;;;9.29;76.57
63447;BME280;49577;49.872;6.190;2023-05-16T04:13:15;99568.39;;;9.29;76.09
63447;BME280;49577;49.872;6.190;2023-05-16T04:15:41;99568.73;;;9.32;76.04
63447;BME280;49577;49.872;6.190;2023-05-16T04:18:07;99569.63;;;9.35;75.86
63447;BME280;49577;49.872;6.190;2023-05-16T04:20:32;99567.02;;;9.34;75.36
63447;BME280;49577;49.872;6.190;2023-05-16T04:22:57;99572.48;;;9.30;75.17
63447;BME280;49577;49.872;6.190;2023-05-16T04:25:23;99578.48;;;9.26;75.44
63447;BME280;49577;49.872;6.190;2023-05-16T04:27:48;99574.08;;;9.21;75.73
63447;BME280;49577;49.872;6.190;2023-05-16T04:30:14;99580.31;;;9.22;75.77
63447;BME280;49577;49.872;6.190;2023-05-16T04:32:39;99586.31;;;9.23;75.87
63447;BME280;49577;49.872;6.190;2023-05-16T04:35:05;99580.33;;;9.27;75.84
63447;BME280;49577;49.872;6.190;2023-05-16T04:37:33;99582.33;;;9.26;75.30
63447;BME280;49577;49.872;6.190;2023-05-16T04:39:58;99585.98;;;9.26;75.49
63447;BME280;49577;49.872;6.190;2023-05-16T04:42:24;99588.98;;;9.26;75.41
63447;BME280;49577;49.872;6.190;2023-05-16T04:44:49;99593.98;;;9.21;74.93
63447;BME280;49577;49.872;6.190;2023-05-16T04:47:14;99599.55;;;9.15;75.20
63447;BME280;49577;49.872;6.190;2023-05-16T04:49:40;99600.02;;;9.19;75.60
63447;BME280;49577;49.872;6.190;2023-05-16T04:52:06;99595.13;;;9.22;75.01
63447;BME280;49577;49.872;6.190;2023-05-16T04:54:32;99602.43;;;9.22;75.31
63447;BME280;49577;49.872;6.190;2023-05-16T04:56:58;99603.39;;;9.24;75.12
63447;BME280;49577;49.872;6.190;2023-05-16T04:59:23;99606.23;;;9.23;74.69
63447;BME280;49577;49.872;6.190;2023-05-16T05:01:49;99613.79;;;9.15;74.18
63447;BME280;49577;49.872;6.190;2023-05-16T05:04:14;99615.66;;;9.10;74.30
63447;BME280;49577;49.872;6.190;2023-05-16T05:06:42;99620.06;;;9.06;74.45
63447;BME280;49577;49.872;6.190;2023-05-16T05:09:07;99625.31;;;9.06;74.30
63447;BME280;49577;49.872;6.190;2023-05-16T05:11:33;99628.98;;;9.05;74.42
63447;BME280;49577;49.872;6.190;2023-05-16T05:13:59;99633.52;;;9.06;74.37
63447;BME280;49577;49.872;6.190;2023-05-16T05:16:24;99634.55;;;9.06;73.46
63447;BME280;49577;49.872;6.190;2023-05-16T05:18:50;99644.48;;;9.09;73.64
63447;BME280;49577;49.872;6.190;2023-05-16T05:21:15;99649.95;;;9.11;73.63
63447;BME280;49577;49.872;6.190;2023-05-16T05:23:40;99649.06;;;9.14;73.90
63447;BME280;49577;49.872;6.190;2023-05-16T05:26:05;99658.78;;;9.18;73.14
63447;BME280;49577;49.872;6.190;2023-05-16T05:28:31;99662.05;;;9.19;72.55
63447;BME280;49577;49.872;6.190;2023-05-16T05:30:56;99661.57;;;9.21;72.52
63447;BME280;49577;49.872;6.190;2023-05-16T05:33:26;99661.89;;;9.22;71.82
63447;BME280;49577;49.872;6.190;2023-05-16T05:35:52;99662.48;;;9.24;71.77
63447;BME280;49577;49.872;6.190;2023-05-16T05:38:18;99665.88;;;9.22;70.61
63447;BME280;49577;49.872;6.190;2023-05-16T05:40:44;99667.23;;;9.14;70.20
63447;BME280;49577;49.872;6.190;2023-05-16T05:43:09;99673.84;;;9.11;70.33
63447;BME280;49577;49.872;6.190;2023-05-16T05:45:35;99674.80;;;9.09;70.21
63447;BME280;49577;49.872;6.190;2023-05-16T05:48:01;99674.20;;;9.07;69.84
63447;BME280;49577;49.872;6.190;2023-05-16T05:50:27;99681.67;;;9.14;70.27
63447;BME280;49577;49.872;6.190;2023-05-16T05:52:53;99677.88;;;9.19;70.13
63447;BME280;49577;49.872;6.190;2023-05-16T05:55:18;99675.44;;;9.26;69.91
63447;BME280;49577;49.872;6.190;2023-05-16T05:57:44;99678.78;;;9.25;68.85
63447;BME280;49577;49.872;6.190;2023-05-16T06:00:10;99684.85;;;9.20;69.13
63447;BME280;49577;49.872;6.190;2023-05-16T06:02:35;99688.06;;;9.18;69.17
63447;BME280;49577;49.872;6.190;2023-05-16T06:05:01;99685.24;;;9.19;68.72
63447;BME280;49577;49.872;6.190;2023-05-16T06:07:26;99686.16;;;9.24;68.57
63447;BME280;49577;49.872;6.190;2023-05-16T06:09:52;99688.31;;;9.29;67.68
63447;BME280;49577;49.872;6.190;2023-05-16T06:12:17;99693.30;;;9.27;66.87
63447;BME280;49577;49.872;6.190;2023-05-16T06:14:42;99701.13;;;9.27;67.40
63447;BME280;49577;49.872;6.190;2023-05-16T06:17:08;99701.36;;;9.39;67.16
63447;BME280;49577;49.872;6.190;2023-05-16T06:19:33;99698.88;;;9.58;65.73
63447;BME280;49577;49.872;6.190;2023-05-16T06:21:58;99701.57;;;9.81;65.62
63447;BME280;49577;49.872;6.190;2023-05-16T06:24:23;99706.37;;;10.12;64.56
63447;BME280;49577;49.872;6.190;2023-05-16T06:26:49;99708.56;;;10.34;63.08
63447;BME280;49577;49.872;6.190;2023-05-16T06:29:15;99709.84;;;10.51;61.22
63447;BME280;49577;49.872;6.190;2023-05-16T06:31:41;99706.90;;;11.04;61.01
63447;BME280;49577;49.872;6.190;2023-05-16T06:34:06;99711.15;;;12.11;56.41
63447;BME280;49577;49.872;6.190;2023-05-16T06:36:32;99710.56;;;12.95;54.96
63447;BME280;49577;49.872;6.190;2023-05-16T06:38:57;99709.84;;;12.93;53.45
63447;BME280;49577;49.872;6.190;2023-05-16T06:41:22;99715.29;;;13.33;52.48
63447;BME280;49577;49.872;6.190;2023-05-16T06:43:48;99705.11;;;14.16;49.93
63447;BME280;49577;49.872;6.190;2023-05-16T06:46:13;99712.11;;;14.55;48.74
63447;BME280;49577;49.872;6.190;2023-05-16T06:48:38;99714.64;;;15.25;47.75
63447;BME280;49577;49.872;6.190;2023-05-16T06:51:04;99712.01;;;16.37;45.06
63447;BME280;49577;49.872;6.190;2023-05-16T06:53:29;99711.34;;;17.09;43.82
63447;BME280;49577;49.872;6.190;2023-05-16T06:55:55;99712.71;;;17.89;43.43
63447;BME280;49577;49.872;6.190;2023-05-16T06:58:20;99713.23;;;18.33;41.42
63447;BME280;49577;49.872;6.190;2023-05-16T07:00:48;99710.95;;;18.08;40.15
63447;BME280;49577;49.872;6.190;2023-05-16T07:03:13;99713.45;;;17.90;41.34
63447;BME280;49577;49.872;6.190;2023-05-16T07:05:39;99713.92;;;18.18;41.12
63447;BME280;49577;49.872;6.190;2023-05-16T07:08:07;99713.45;;;18.74;38.50
63447;BME280;49577;49.872;6.190;2023-05-16T07:10:33;99721.24;;;19.29;38.21
63447;BME280;49577;49.872;6.190;2023-05-16T07:12:58;99720.11;;;19.82;35.80
63447;BME280;49577;49.872;6.190;2023-05-16T07:15:25;99717.79;;;19.90;34.96
63447;BME280;49577;49.872;6.190;2023-05-16T07:17:50;99718.52;;;20.36;36.17
63447;BME280;49577;49.872;6.190;2023-05-16T07:20:16;99717.88;;;20.70;34.52
63447;BME280;49577;49.872;6.190;2023-05-16T07:22:41;99716.98;;;20.64;33.42
63447;BME280;49577;49.872;6.190;2023-05-16T07:25:07;99717.46;;;20.96;33.46
63447;BME280;49577;49.872;6.190;2023-05-16T07:27:37;99718.63;;;21.13;33.85
63447;BME280;49577;49.872;6.190;2023-05-16T07:30:03;99720.56;;;21.42;33.41
63447;BME280;49577;49.872;6.190;2023-05-16T07:32:28;99724.27;;;21.84;31.89
63447;BME280;49577;49.872;6.190;2023-05-16T07:34:56;99735.02;;;21.60;31.28
63447;BME280;49577;49.872;6.190;2023-05-16T07:37:21;99732.38;;;21.66;31.10
63447;BME280;49577;49.872;6.190;2023-05-16T07:39:47;99729.38;;;21.94;30.76
63447;BME280;49577;49.872;6.190;2023-05-16T07:42:12;99732.71;;;21.93;30.50
63447;BME280;49577;49.872;6.190;2023-05-16T07:44:37;99734.67;;;21.30;30.78
63447;BME280;49577;49.872;6.190;2023-05-16T07:47:03;99736.75;;;21.28;30.38
63447;BME280;49577;49.872;6.190;2023-05-16T07:49:28;99740.17;;;21.68;29.81
63447;BME280;49577;49.872;6.190;2023-05-16T07:51:54;99734.05;;;22.02;29.78
63447;BME280;49577;49.872;6.190;2023-05-16T07:54:19;99739.86;;;22.37;29.85
63447;BME280;49577;49.872;6.190;2023-05-16T07:56:44;99737.87;;;22.53;28.73
63447;BME280;49577;49.872;6.190;2023-05-16T07:59:09;99741.52;;;22.28;28.94
63447;BME280;49577;49.872;6.190;2023-05-16T08:01:35;99744.67;;;21.68;29.54
63447;BME280;49577;49.872;6.190;2023-05-16T08:04:01;99738.27;;;21.34;29.46
63447;BME280;49577;49.872;6.190;2023-05-16T08:06:26;99746.74;;;20.66;30.21
63447;BME280;49577;49.872;6.190;2023-05-16T08:08:52;99745.02;;;20.53;30.68
63447;BME280;49577;49.872;6.190;2023-05-16T08:11:18;99746.05;;;20.80;30.62
63447;BME280;49577;49.872;6.190;2023-05-16T08:13:44;99751.48;;;21.17;30.26
63447;BME280;49577;49.872;6.190;2023-05-16T08:16:09;99751.95;;;21.31;29.54
63447;BME280;49577;49.872;6.190;2023-05-16T08:18:35;99754.08;;;21.34;29.38
63447;BME280;49577;49.872;6.190;2023-05-16T08:21:01;99755.45;;;21.91;28.75
63447;BME280;49577;49.872;6.190;2023-05-16T08:23:26;99759.56;;;22.52;28.31
63447;BME280;49577;49.872;6.190;2023-05-16T08:25:51;99762.45;;;22.51;27.36
63447;BME280;49577;49.872;6.190;2023-05-16T08:28:18;99767.13;;;21.99;27.82
63447;BME280;49577;49.872;6.190;2023-05-16T08:30:44;99774.89;;;21.89;27.69
63447;BME280;49577;49.872;6.190;2023-05-16T08:33:09;99771.56;;;21.82;27.58
63447;BME280;49577;49.872;6.190;2023-05-16T08:35:34;99770.05;;;22.21;27.44
63447;BME280;49577;49.872;6.190;2023-05-16T08:38:00;99768.03;;;22.59;27.67
63447;BME280;49577;49.872;6.190;2023-05-16T08:40:27;99769.02;;;23.09;26.35
63447;BME280;49577;49.872;6.190;2023-05-16T08:42:53;99766.77;;;23.31;25.63
63447;BME280;49577;49.872;6.190;2023-05-16T08:45:18;99762.95;;;23.25;26.14
63447;BME280;49577;49.872;6.190;2023-05-16T08:47:44;99763.53;;;23.50;26.18
63447;BME280;49577;49.872;6.190;2023-05-16T08:50:11;99763.98;;;23.89;25.59
63447;BME280;49577;49.872;6.190;2023-05-16T08:52:37;99758.11;;;24.12;25.21
63447;BME280;49577;49.872;6.190;2023-05-16T08:55:05;99760.98;;;24.47;24.67
63447;BME280;49577;49.872;6.190;2023-05-16T08:57:34;99760.77;;;24.53;23.95
63447;BME280;49577;49.872;6.190;2023-05-16T08:59:59;99758.80;;;24.02;23.99
63447;BME280;49577;49.872;6.190;2023-05-16T09:02:28;99755.97;;;23.68;25.12
63447;BME280;49577;49.872;6.190;2023-05-16T09:04:55;99760.40;;;23.94;25.51
63447;BME280;49577;49.872;6.190;2023-05-16T09:07:21;99760.80;;;23.86;24.99
63447;BME280;49577;49.872;6.190;2023-05-16T09:09:47;99756.61;;;23.57;25.30
63447;BME280;49577;49.872;6.190;2023-05-16T09:12:12;99756.40;;;23.27;25.43
63447;BME280;49577;49.872;6.190;2023-05-16T09:14:38;99755.64;;;23.06;25.68
63447;BME280;49577;49.872;6.190;2023-05-16T09:17:07;99758.16;;;23.47;26.12
63447;BME280;49577;49.872;6.190;2023-05-16T09:19:40;99763.46;;;24.05;24.84
63447;BME280;49577;49.872;6.190;2023-05-16T09:22:14;99762.88;;;24.43;24.68
63447;BME280;49577;49.872;6.190;2023-05-16T09:24:40;99766.13;;;25.02;24.17
63447;BME280;49577;49.872;6.190;2023-05-16T09:27:13;99763.79;;;25.22;23.87
63447;BME280;49577;49.872;6.190;2023-05-16T09:29:43;99768.77;;;24.64;24.11
63447;BME280;49577;49.872;6.190;2023-05-16T09:32:09;99771.62;;;23.88;25.30
63447;BME280;49577;49.872;6.190;2023-05-16T09:34:40;99769.79;;;23.70;25.62
63447;BME280;49577;49.872;6.190;2023-05-16T09:37:08;99768.94;;;23.02;26.28
63447;BME280;49577;49.872;6.190;2023-05-16T09:39:34;99768.14;;;22.57;26.98
63447;BME280;49577;49.872;6.190;2023-05-16T09:41:59;99773.36;;;22.20;27.71
63447;BME280;49577;49.872;6.190;2023-05-16T09:44:25;99774.80;;;21.65;27.58
63447;BME280;49577;49.872;6.190;2023-05-16T09:46:53;99776.10;;;20.81;27.45
63447;BME280;49577;49.872;6.190;2023-05-16T09:49:18;99777.06;;;19.93;28.52
63447;BME280;49577;49.872;6.190;2023-05-16T09:51:44;99772.11;;;19.47;29.66
63447;BME280;49577;49.872;6.190;2023-05-16T09:54:10;99778.04;;;19.33;29.98
63447;BME280;49577;49.872;6.190;2023-05-16T09:56:47;99778.41;;;19.17;30.26
63447;BME280;49577;49.872;6.190;2023-05-16T09:59:13;99780.71;;;18.62;30.29
63447;BME280;49577;49.872;6.190;2023-05-16T10:01:39;99784.36;;;18.38;31.05
63447;BME280;49577;49.872;6.190;2023-05-16T10:04:05;99781.14;;;18.94;30.53
63447;BME280;49577;49.872;6.190;2023-05-16T10:06:31;99784.05;;;19.99;29.53
63447;BME280;49577;49.872;6.190;2023-05-16T10:08:57;99782.84;;;21.05;28.53
63447;BME280;49577;49.872;6.190;2023-05-16T10:11:23;99787.25;;;21.70;27.07
63447;BME280;49577;49.872;6.190;2023-05-16T10:13:50;99787.92;;;21.56;27.81
63447;BME280;49577;49.872;6.190;2023-05-16T10:16:17;99782.43;;;22.07;25.69
63447;BME280;49577;49.872;6.190;2023-05-16T10:18:43;99783.11;;;22.33;25.53
63447;BME280;49577;49.872;6.190;2023-05-16T10:21:13;99780.11;;;22.64;25.41
63447;BME280;49577;49.872;6.190;2023-05-16T10:23:43;99776.30;;;22.89;25.25
63447;BME280;49577;49.872;6.190;2023-05-16T10:26:13;99772.14;;;22.55;24.37
63447;BME280;49577;49.872;6.190;2023-05-16T10:28:40;99765.83;;;22.37;25.34
63447;BME280;49577;49.872;6.190;2023-05-16T10:31:06;99764.98;;;22.56;25.94
63447;BME280;49577;49.872;6.190;2023-05-16T10:33:32;99768.92;;;22.28;24.96
63447;BME280;49577;49.872;6.190;2023-05-16T10:35:59;99771.81;;;21.55;25.48
63447;BME280;49577;49.872;6.190;2023-05-16T10:38:26;99768.95;;;21.40;25.48
63447;BME280;49577;49.872;6.190;2023-05-16T10:40:52;99768.50;;;21.82;25.46
63447;BME280;49577;49.872;6.190;2023-05-16T10:43:25;99766.62;;;22.13;24.64
63447;BME280;49577;49.872;6.190;2023-05-16T10:45:55;99762.80;;;22.17;24.67
63447;BME280;49577;49.872;6.190;2023-05-16T10:48:38;99758.81;;;22.10;25.33
63447;BME280;49577;49.872;6.190;2023-05-16T10:53:51;99755.23;;;22.97;25.14
63447;BME280;49577;49.872;6.190;2023-05-16T10:56:25;99749.96;;;23.61;24.21
63447;BME280;49577;49.872;6.190;2023-05-16T10:58:52;99750.92;;;24.20;23.87
63447;BME280;49577;49.872;6.190;2023-05-16T11:01:31;99742.62;;;24.64;23.12
63447;BME280;49577;49.872;6.190;2023-05-16T11:11:44;99744.17;;;25.04;22.40
63447;BME280;49577;49.872;6.190;2023-05-16T11:19:38;99759.90;;;23.60;23.65
63447;BME280;49577;49.872;6.190;2023-05-16T11:27:29;99761.63;;;23.08;23.47
63447;BME280;49577;49.872;6.190;2023-05-16T11:32:26;99760.30;;;22.08;25.27
63447;BME280;49577;49.872;6.190;2023-05-16T11:34:51;99757.89;;;21.62;25.65
63447;BME280;49577;49.872;6.190;2023-05-16T11:37:19;99760.77;;;20.80;25.51
63447;BME280;49577;49.872;6.190;2023-05-16T11:39:45;99761.16;;;20.06;26.60
63447;BME280;49577;49.872;6.190;2023-05-16T11:42:11;99760.23;;;19.96;27.25
63447;BME280;49577;49.872;6.190;2023-05-16T11:44:37;99751.28;;;20.04;27.15
63447;BME280;49577;49.872;6.190;2023-05-16T11:47:04;99752.26;;;20.14;26.68
63447;BME280;49577;49.872;6.190;2023-05-16T11:49:29;99755.14;;;20.05;27.27
63447;BME280;49577;49.872;6.190;2023-05-16T11:51:56;99755.10;;;19.73;26.76
63447;BME280;49577;49.872;6.190;2023-05-16T11:54:22;99752.82;;;19.21;27.66
63447;BME280;49577;49.872;6.190;2023-05-16T11:56:49;99749.12;;;18.77;28.63
63447;BME280;49577;49.872;6.190;2023-05-16T11:59:16;99750.63;;;18.62;29.87
63447;BME280;49577;49.872;6.190;2023-05-16T12:01:41;99756.52;;;18.71;30.44
63447;BME280;49577;49.872;6.190;2023-05-16T12:06:34;99760.46;;;19.08;30.12
63447;BME280;49577;49.872;6.190;2023-05-16T12:08:59;99762.39;;;18.97;29.86
63447;BME280;49577;49.872;6.190;2023-05-16T12:11:29;99755.45;;;18.79;30.33
63447;BME280;49577;49.872;6.190;2023-05-16T12:13:54;99761.23;;;18.72;30.08
63447;BME280;49577;49.872;6.190;2023-05-16T12:16:20;99767.92;;;18.46;29.75
63447;BME280;49577;49.872;6.190;2023-05-16T12:18:46;99769.92;;;18.15;30.79
63447;BME280;49577;49.872;6.190;2023-05-16T12:21:12;99773.63;;;18.05;30.89
63447;BME280;49577;49.872;6.190;2023-05-16T12:23:37;99781.88;;;17.82;31.31
63447;BME280;49577;49.872;6.190;2023-05-16T12:26:02;99783.30;;;17.58;32.31
63447;BME280;49577;49.872;6.190;2023-05-16T12:28:32;99784.20;;;17.56;32.57
63447;BME280;49577;49.872;6.190;2023-05-16T12:31:01;99781.43;;;17.34;31.76
63447;BME280;49577;49.872;6.190;2023-05-16T12:33:27;99777.78;;;17.03;31.75
63447;BME280;49577;49.872;6.190;2023-05-16T12:35:52;99775.23;;;17.04;32.34
63447;BME280;49577;49.872;6.190;2023-05-16T12:38:18;99772.02;;;17.20;32.43
63447;BME280;49577;49.872;6.190;2023-05-16T12:40:46;99770.40;;;17.38;31.92
63447;BME280;49577;49.872;6.190;2023-05-16T12:43:18;99770.41;;;17.54;31.09
63447;BME280;49577;49.872;6.190;2023-05-16T12:45:51;99774.58;;;17.63;31.39
63447;BME280;49577;49.872;6.190;2023-05-16T12:48:17;99775.75;;;17.67;31.66
63447;BME280;49577;49.872;6.190;2023-05-16T12:50:42;99775.76;;;17.65;31.74
63447;BME280;49577;49.872;6.190;2023-05-16T12:53:17;99777.41;;;17.59;32.11
63447;BME280;49577;49.872;6.190;2023-05-16T12:55:43;99784.93;;;17.68;33.16
63447;BME280;49577;49.872;6.190;2023-05-16T12:58:10;99785.46;;;17.80;32.73
63447;BME280;49577;49.872;6.190;2023-05-16T13:00:36;99789.63;;;17.92;32.53
63447;BME280;49577;49.872;6.190;2023-05-16T13:03:03;99779.00;;;18.31;31.65
63447;BME280;49577;49.872;6.190;2023-05-16T13:05:28;99781.69;;;18.63;31.07
63447;BME280;49577;49.872;6.190;2023-05-16T13:07:54;99777.05;;;18.73;31.07
63447;BME280;49577;49.872;6.190;2023-05-16T13:10:19;99783.60;;;18.85;31.33
63447;BME280;49577;49.872;6.190;2023-05-16T13:12:45;99785.80;;;18.85;31.25
63447;BME280;49577;49.872;6.190;2023-05-16T13:15:31;99782.91;;;18.52;30.93
63447;BME280;49577;49.872;6.190;2023-05-16T13:17:56;99792.72;;;18.09;32.30
63447;BME280;49577;49.872;6.190;2023-05-16T13:20:21;99794.71;;;17.71;33.10
63447;BME280;49577;49.872;6.190;2023-05-16T13:22:47;99798.70;;;17.34;32.46
63447;BME280;49577;49.872;6.190;2023-05-16T13:25:12;99799.04;;;16.96;31.79
63447;BME280;49577;49.872;6.190;2023-05-16T13:27:38;99797.69;;;16.66;32.43
63447;BME280;49577;49.872;6.190;2023-05-16T13:30:04;99800.50;;;16.38;33.48
63447;BME280;49577;49.872;6.190;2023-05-16T13:32:29;99800.70;;;16.28;33.66
63447;BME280;49577;49.872;6.190;2023-05-16T13:34:55;99801.23;;;16.28;33.69
63447;BME280;49577;49.872;6.190;2023-05-16T13:37:20;99796.60;;;16.47;33.21
63447;BME280;49577;49.872;6.190;2023-05-16T13:39:48;99786.30;;;16.65;33.85